CheckWX is a tool to help pilots better visualize weather data.  It is not intended as a substitute for an official pre-flight weather briefing.

18:36:30 UTC

EGJB TAF
Guernsey Airport
Saint Peter Port, Guernsey
TAF EGJB 171656Z 1718/1803 22019KT 9999 FEW018CB TEMPO 1718/1803 22021G32KT 6000 SHRA BKN015CB PROB30 TEMPO 1722/1803 20025G40KT 3000 +TSRA BKN012CB BECMG 1800/1802 24026G40KT

Oct-17@
18:00 UTC

Oct-17 @ 18:00 UTC

Oct-18@
00:00 UTC

Oct-18 @ 00:00 UTC

TAF EGJB 171656Z 1718/1803 22019KT 9999 FEW018CB
Wind
  • 220° at 19 KTS
Cloud Levels
  • Few at 1,800' AGL

Oct-17@
18:00 UTC

Oct-17 @ 18:00 UTC

Oct-18@
03:00 UTC

Oct-18 @ 03:00 UTC

TEMPO 1718/1803 22021G32KT 6000 SHRA BKN015CB

Temporary

Temporary Changes expected for less than half the time period

Wind
  • 220° at 21 KTS
  • {Gusting to 32 KTS
Conditions
Rain
Cloud Levels
  • Broken at 1,500' AGL

Oct-17@
22:00 UTC

Oct-17 @ 22:00 UTC

Oct-18@
03:00 UTC

Oct-18 @ 03:00 UTC

PROB30 TEMPO 1722/1803 20025G40KT 3000 +TSRA BKN012CB

Temporary - 30% Likelihood

Temporary - 30% Likelihood during this time.

Wind
  • 200° at 25 KTS
  • {Gusting to 40 KTS
Conditions
Heavy Thunderstorm, Heavy Rain
Cloud Levels
  • Broken at 1,200' AGL

Oct-18@
00:00 UTC

Oct-18 @ 00:00 UTC

Oct-18@
03:00 UTC

Oct-18 @ 03:00 UTC

BECMG 1800/1802 24026G40KT

Becoming

Becoming Conditions expected by Fri, Oct 18, 2019 @ 02:00 UTC

Wind
  • 240° at 26 KTS
  • {Gusting to 40 KTS
Cloud Levels
  • Few at 1,800' AGL